This is the latest recevied weather packets stored in our database for station/object TA3MHA. If no packets are shown the sender has not sent any weather packets the latest 1 day(s).
| Time | Temp. | Humidity | Pressure | Rain* | Wind** | Luminosity | Snow |
|---|---|---|---|---|---|---|---|
| 1778046900 | 17.22° C | 51% | - | 0 mm | - | 377 W/m² | - |
| 1778046600 | 16.11° C | 54% | - | 0 mm | - | 360 W/m² | - |
| 1778045700 | 15° C | 55% | - | 0 mm | - | 310 W/m² | - |
| 1778044500 | 14.44° C | 58% | - | 0 mm | - | 241 W/m² | - |
| 1778043300 | 11.11° C | 63% | - | 0 mm | - | 193 W/m² | - |
| 1778042101 | 10.56° C | 66% | - | 0 mm | - | 70 W/m² | - |
| 1778041800 | 10.56° C | 72% | - | 0 mm | - | 85 W/m² | - |
| 1778040300 | 10° C | 66% | - | 0 mm | - | 56 W/m² | - |
| 1778039100 | 8.89° C | 67% | - | 0 mm | - | 40 W/m² | - |
| 1778038500 | 8.89° C | 67% | - | 0 mm | - | 25 W/m² | - |
| 1778037601 | 7.78° C | 72% | - | 0 mm | - | 10 W/m² | - |
| 1778037001 | 7.78° C | 73% | - | 0 mm | - | 4 W/m² | - |
| 1778035801 | 7.78° C | 73% | - | 0 mm | - | 0 W/m² | - |
| 1778035200 | 8.33° C | 69% | - | 0 mm | - | 0 W/m² | - |
| 1778034900 | 8.89° C | 67% | - | 0 mm | - | 0 W/m² | - |
| 1778034301 | 8.89° C | 66% | - | 0 mm | - | 0 W/m² | - |
| 1778033400 | 8.33° C | 68% | - | 0 mm | - | 0 W/m² | - |
| 1778033100 | 8.89° C | 67% | - | 0 mm | - | 0 W/m² | - |
| 1778032500 | 8.33° C | 69% | - | 0 mm | - | 0 W/m² | - |
| 1778031300 | 7.78° C | 69% | - | 0 mm | - | 0 W/m² | - |
| 1778030401 | 7.78° C | 71% | - | 0 mm | - | 0 W/m² | - |
| 1778029800 | 7.78° C | 72% | - | 0 mm | - | 0 W/m² | - |
| 1778028601 | 8.89° C | 65% | - | 0 mm | - | 0 W/m² | - |
| 1778027700 | 8.33° C | 69% | - | 0 mm | - | 0 W/m² | - |
| 1778027401 | 9.44° C | 63% | - | 0 mm | - | 0 W/m² | - |
* Rain latest hour (hover to see other rain measurements)
** Current wind speed in m/s (hover to see current wind gust speed)